sensor_id;sensor_type;location;lat;lon;timestamp;temperature;humidity
3752;DHT22;50827;47.014;7.652;2023-08-21T00:01:38;24.50;99.90
3752;DHT22;50827;47.014;7.652;2023-08-21T00:04:05;24.40;99.90
3752;DHT22;50827;47.014;7.652;2023-08-21T00:06:32;24.40;99.90
3752;DHT22;50827;47.014;7.652;2023-08-21T00:09:00;24.30;99.90
3752;DHT22;50827;47.014;7.652;2023-08-21T00:11:26;24.30;99.90
3752;DHT22;50827;47.014;7.652;2023-08-21T00:13:55;24.20;99.90
3752;DHT22;50827;47.014;7.652;2023-08-21T00:16:22;24.20;99.90
3752;DHT22;50827;47.014;7.652;2023-08-21T00:18:50;24.10;99.90
3752;DHT22;50827;47.014;7.652;2023-08-21T00:21:16;24.00;99.90
3752;DHT22;50827;47.014;7.652;2023-08-21T00:23:43;24.00;99.90
3752;DHT22;50827;47.014;7.652;2023-08-21T00:26:12;23.90;99.90
3752;DHT22;50827;47.014;7.652;2023-08-21T00:28:39;24.00;99.90
3752;DHT22;50827;47.014;7.652;2023-08-21T00:31:06;23.90;99.90
3752;DHT22;50827;47.014;7.652;2023-08-21T00:33:33;23.90;99.90
3752;DHT22;50827;47.014;7.652;2023-08-21T00:36:00;23.80;99.90
3752;DHT22;50827;47.014;7.652;2023-08-21T00:38:26;23.80;99.90
3752;DHT22;50827;47.014;7.652;2023-08-21T00:40:53;23.70;99.90
3752;DHT22;50827;47.014;7.652;2023-08-21T00:43:20;23.60;99.90
3752;DHT22;50827;47.014;7.652;2023-08-21T00:45:49;23.60;99.90
3752;DHT22;50827;47.014;7.652;2023-08-21T00:48:17;23.60;99.90
3752;DHT22;50827;47.014;7.652;2023-08-21T00:50:45;23.50;99.90
3752;DHT22;50827;47.014;7.652;2023-08-21T00:53:12;23.50;99.90
3752;DHT22;50827;47.014;7.652;2023-08-21T00:55:40;23.40;99.90
3752;DHT22;50827;47.014;7.652;2023-08-21T00:58:12;23.30;99.90
3752;DHT22;50827;47.014;7.652;2023-08-21T01:00:42;23.20;99.90
3752;DHT22;50827;47.014;7.652;2023-08-21T01:03:10;23.20;99.90
3752;DHT22;50827;47.014;7.652;2023-08-21T01:05:37;23.30;99.90
3752;DHT22;50827;47.014;7.652;2023-08-21T01:11:04;23.30;99.90
3752;DHT22;50827;47.014;7.652;2023-08-21T01:13:59;23.30;99.90
3752;DHT22;50827;47.014;7.652;2023-08-21T01:16:29;23.30;99.90
3752;DHT22;50827;47.014;7.652;2023-08-21T01:18:58;23.30;99.90
3752;DHT22;50827;47.014;7.652;2023-08-21T01:21:26;23.30;99.90
3752;DHT22;50827;47.014;7.652;2023-08-21T01:23:53;23.30;99.90
3752;DHT22;50827;47.014;7.652;2023-08-21T01:26:20;23.30;99.90
3752;DHT22;50827;47.014;7.652;2023-08-21T01:28:47;23.20;99.90
3752;DHT22;50827;47.014;7.652;2023-08-21T01:31:28;23.20;99.90
3752;DHT22;50827;47.014;7.652;2023-08-21T01:34:04;23.10;99.90
3752;DHT22;50827;47.014;7.652;2023-08-21T01:36:33;23.20;99.90
3752;DHT22;50827;47.014;7.652;2023-08-21T01:39:01;23.20;99.90
3752;DHT22;50827;47.014;7.652;2023-08-21T01:41:28;23.20;99.90
3752;DHT22;50827;47.014;7.652;2023-08-21T01:43:54;23.20;99.90
3752;DHT22;50827;47.014;7.652;2023-08-21T01:46:21;23.20;99.90
3752;DHT22;50827;47.014;7.652;2023-08-21T01:48:48;23.20;99.90
3752;DHT22;50827;47.014;7.652;2023-08-21T01:51:15;23.20;99.90
3752;DHT22;50827;47.014;7.652;2023-08-21T01:53:41;23.10;99.90
3752;DHT22;50827;47.014;7.652;2023-08-21T01:56:08;23.10;99.90
3752;DHT22;50827;47.014;7.652;2023-08-21T01:58:35;23.10;99.90
3752;DHT22;50827;47.014;7.652;2023-08-21T02:01:01;23.10;99.90
3752;DHT22;50827;47.014;7.652;2023-08-21T02:03:28;23.00;99.90
3752;DHT22;50827;47.014;7.652;2023-08-21T02:05:57;23.00;99.90
3752;DHT22;50827;47.014;7.652;2023-08-21T02:08:31;23.00;99.90
3752;DHT22;50827;47.014;7.652;2023-08-21T02:10:59;22.90;99.90
3752;DHT22;50827;47.014;7.652;2023-08-21T02:13:26;22.90;99.90
3752;DHT22;50827;47.014;7.652;2023-08-21T02:15:52;22.80;99.90
3752;DHT22;50827;47.014;7.652;2023-08-21T02:18:19;22.80;99.90
3752;DHT22;50827;47.014;7.652;2023-08-21T02:20:49;22.70;99.90
3752;DHT22;50827;47.014;7.652;2023-08-21T02:23:16;22.70;99.90
3752;DHT22;50827;47.014;7.652;2023-08-21T02:25:43;22.70;99.90
3752;DHT22;50827;47.014;7.652;2023-08-21T02:28:09;22.60;99.90
3752;DHT22;50827;47.014;7.652;2023-08-21T02:30:40;22.70;99.90
3752;DHT22;50827;47.014;7.652;2023-08-21T02:33:07;22.60;99.90
3752;DHT22;50827;47.014;7.652;2023-08-21T02:35:33;22.70;99.90
3752;DHT22;50827;47.014;7.652;2023-08-21T02:38:00;22.60;99.90
3752;DHT22;50827;47.014;7.652;2023-08-21T02:40:27;22.70;99.90
3752;DHT22;50827;47.014;7.652;2023-08-21T02:42:54;22.70;99.90
3752;DHT22;50827;47.014;7.652;2023-08-21T02:45:20;22.70;99.90
3752;DHT22;50827;47.014;7.652;2023-08-21T02:47:47;22.70;99.90
3752;DHT22;50827;47.014;7.652;2023-08-21T02:50:14;22.60;99.90
3752;DHT22;50827;47.014;7.652;2023-08-21T02:52:40;22.60;99.90
3752;DHT22;50827;47.014;7.652;2023-08-21T02:55:08;22.60;99.90
3752;DHT22;50827;47.014;7.652;2023-08-21T02:57:35;22.60;99.90
3752;DHT22;50827;47.014;7.652;2023-08-21T03:00:02;22.50;99.90
3752;DHT22;50827;47.014;7.652;2023-08-21T03:02:29;22.50;99.90
3752;DHT22;50827;47.014;7.652;2023-08-21T03:04:56;22.50;99.90
3752;DHT22;50827;47.014;7.652;2023-08-21T03:07:23;22.40;99.90
3752;DHT22;50827;47.014;7.652;2023-08-21T03:09:50;22.40;99.90
3752;DHT22;50827;47.014;7.652;2023-08-21T03:12:16;22.30;99.90
3752;DHT22;50827;47.014;7.652;2023-08-21T03:14:43;22.30;99.90
3752;DHT22;50827;47.014;7.652;2023-08-21T03:17:10;22.30;99.90
3752;DHT22;50827;47.014;7.652;2023-08-21T03:19:37;22.30;99.90
3752;DHT22;50827;47.014;7.652;2023-08-21T03:22:03;22.30;99.90
3752;DHT22;50827;47.014;7.652;2023-08-21T03:24:30;22.20;99.90
3752;DHT22;50827;47.014;7.652;2023-08-21T03:26:57;22.10;99.90
3752;DHT22;50827;47.014;7.652;2023-08-21T03:29:23;22.20;99.90
3752;DHT22;50827;47.014;7.652;2023-08-21T03:31:52;22.10;99.90
3752;DHT22;50827;47.014;7.652;2023-08-21T03:34:19;22.10;99.90
3752;DHT22;50827;47.014;7.652;2023-08-21T03:36:46;22.10;99.90
3752;DHT22;50827;47.014;7.652;2023-08-21T03:39:12;22.10;99.90
3752;DHT22;50827;47.014;7.652;2023-08-21T03:41:39;22.10;99.90
3752;DHT22;50827;47.014;7.652;2023-08-21T03:44:06;22.00;99.90
3752;DHT22;50827;47.014;7.652;2023-08-21T03:46:32;22.00;99.90
3752;DHT22;50827;47.014;7.652;2023-08-21T03:48:59;22.00;99.90
3752;DHT22;50827;47.014;7.652;2023-08-21T03:51:26;22.00;99.90
3752;DHT22;50827;47.014;7.652;2023-08-21T03:53:52;22.10;99.90
3752;DHT22;50827;47.014;7.652;2023-08-21T03:56:19;21.90;99.90
3752;DHT22;50827;47.014;7.652;2023-08-21T03:58:46;21.90;99.90
3752;DHT22;50827;47.014;7.652;2023-08-21T04:01:14;21.90;99.90
3752;DHT22;50827;47.014;7.652;2023-08-21T04:03:42;21.90;99.90
3752;DHT22;50827;47.014;7.652;2023-08-21T04:06:09;21.90;99.90
3752;DHT22;50827;47.014;7.652;2023-08-21T04:08:36;21.90;99.90
3752;DHT22;50827;47.014;7.652;2023-08-21T04:11:02;21.80;99.90
3752;DHT22;50827;47.014;7.652;2023-08-21T04:13:29;21.80;99.90
3752;DHT22;50827;47.014;7.652;2023-08-21T04:15:56;21.70;99.90
3752;DHT22;50827;47.014;7.652;2023-08-21T04:18:23;21.70;99.90
3752;DHT22;50827;47.014;7.652;2023-08-21T04:21:07;21.70;99.90
3752;DHT22;50827;47.014;7.652;2023-08-21T04:23:33;21.70;99.90
3752;DHT22;50827;47.014;7.652;2023-08-21T04:26:04;21.70;99.90
3752;DHT22;50827;47.014;7.652;2023-08-21T04:28:32;21.70;99.90
3752;DHT22;50827;47.014;7.652;2023-08-21T04:30:59;21.60;99.90
3752;DHT22;50827;47.014;7.652;2023-08-21T04:33:27;21.60;99.90
3752;DHT22;50827;47.014;7.652;2023-08-21T04:35:54;21.60;99.90
3752;DHT22;50827;47.014;7.652;2023-08-21T04:38:21;21.60;99.90
3752;DHT22;50827;47.014;7.652;2023-08-21T04:40:48;21.60;99.90
3752;DHT22;50827;47.014;7.652;2023-08-21T04:43:15;21.60;99.90
3752;DHT22;50827;47.014;7.652;2023-08-21T04:45:51;21.50;99.90
3752;DHT22;50827;47.014;7.652;2023-08-21T04:48:21;21.50;99.90
3752;DHT22;50827;47.014;7.652;2023-08-21T04:50:48;21.50;99.90
3752;DHT22;50827;47.014;7.652;2023-08-21T04:53:15;21.50;99.90
3752;DHT22;50827;47.014;7.652;2023-08-21T04:55:42;21.60;99.90
3752;DHT22;50827;47.014;7.652;2023-08-21T04:58:15;21.50;99.90
3752;DHT22;50827;47.014;7.652;2023-08-21T05:00:44;21.60;99.90
3752;DHT22;50827;47.014;7.652;2023-08-21T05:03:12;21.50;99.90
3752;DHT22;50827;47.014;7.652;2023-08-21T05:05:39;21.50;99.90
3752;DHT22;50827;47.014;7.652;2023-08-21T05:08:06;21.50;99.90
3752;DHT22;50827;47.014;7.652;2023-08-21T05:10:33;21.60;99.90
3752;DHT22;50827;47.014;7.652;2023-08-21T05:12:59;21.60;99.90
3752;DHT22;50827;47.014;7.652;2023-08-21T05:15:28;21.60;99.90
3752;DHT22;50827;47.014;7.652;2023-08-21T05:17:55;21.60;99.90
3752;DHT22;50827;47.014;7.652;2023-08-21T05:20:22;21.50;99.90
3752;DHT22;50827;47.014;7.652;2023-08-21T05:22:49;21.50;99.90
3752;DHT22;50827;47.014;7.652;2023-08-21T05:25:15;21.50;99.90
3752;DHT22;50827;47.014;7.652;2023-08-21T05:27:42;21.50;99.90
3752;DHT22;50827;47.014;7.652;2023-08-21T05:30:10;21.50;99.90
3752;DHT22;50827;47.014;7.652;2023-08-21T05:32:38;21.50;99.90
3752;DHT22;50827;47.014;7.652;2023-08-21T05:35:05;21.60;99.90
3752;DHT22;50827;47.014;7.652;2023-08-21T05:37:34;21.60;99.90
3752;DHT22;50827;47.014;7.652;2023-08-21T05:40:01;21.60;99.90
3752;DHT22;50827;47.014;7.652;2023-08-21T05:42:30;21.60;99.90
3752;DHT22;50827;47.014;7.652;2023-08-21T05:44:56;21.70;99.90
3752;DHT22;50827;47.014;7.652;2023-08-21T05:47:23;21.80;99.90
3752;DHT22;50827;47.014;7.652;2023-08-21T05:49:51;21.80;99.90
3752;DHT22;50827;47.014;7.652;2023-08-21T05:52:21;21.90;99.90
3752;DHT22;50827;47.014;7.652;2023-08-21T05:54:49;21.90;99.90
3752;DHT22;50827;47.014;7.652;2023-08-21T05:57:16;22.00;99.90
3752;DHT22;50827;47.014;7.652;2023-08-21T05:59:44;22.00;99.90
3752;DHT22;50827;47.014;7.652;2023-08-21T06:02:12;22.10;99.90
3752;DHT22;50827;47.014;7.652;2023-08-21T06:04:41;22.10;99.90
3752;DHT22;50827;47.014;7.652;2023-08-21T06:07:09;22.10;99.90
3752;DHT22;50827;47.014;7.652;2023-08-21T06:09:35;22.10;99.90
3752;DHT22;50827;47.014;7.652;2023-08-21T06:12:06;22.10;99.90
3752;DHT22;50827;47.014;7.652;2023-08-21T06:14:33;22.20;99.90
3752;DHT22;50827;47.014;7.652;2023-08-21T06:17:00;22.10;99.90
3752;DHT22;50827;47.014;7.652;2023-08-21T06:19:28;22.20;99.90
3752;DHT22;50827;47.014;7.652;2023-08-21T06:21:55;22.20;99.90
3752;DHT22;50827;47.014;7.652;2023-08-21T06:24:23;22.30;99.90
3752;DHT22;50827;47.014;7.652;2023-08-21T06:26:51;22.40;99.90
3752;DHT22;50827;47.014;7.652;2023-08-21T06:29:18;22.40;99.90
3752;DHT22;50827;47.014;7.652;2023-08-21T06:31:47;22.40;99.90
3752;DHT22;50827;47.014;7.652;2023-08-21T06:34:13;22.40;99.90
3752;DHT22;50827;47.014;7.652;2023-08-21T06:36:40;22.40;99.90
3752;DHT22;50827;47.014;7.652;2023-08-21T06:39:07;22.50;99.90
3752;DHT22;50827;47.014;7.652;2023-08-21T06:41:33;22.60;99.90
3752;DHT22;50827;47.014;7.652;2023-08-21T06:44:00;22.60;99.90
3752;DHT22;50827;47.014;7.652;2023-08-21T06:46:27;22.70;99.90
3752;DHT22;50827;47.014;7.652;2023-08-21T06:48:54;22.70;99.90
3752;DHT22;50827;47.014;7.652;2023-08-21T06:51:20;22.80;99.90
3752;DHT22;50827;47.014;7.652;2023-08-21T06:53:47;22.90;99.90
3752;DHT22;50827;47.014;7.652;2023-08-21T06:56:15;22.90;99.90
3752;DHT22;50827;47.014;7.652;2023-08-21T06:58:42;23.00;99.90
3752;DHT22;50827;47.014;7.652;2023-08-21T07:01:08;23.10;99.90
3752;DHT22;50827;47.014;7.652;2023-08-21T07:03:35;23.10;99.90
3752;DHT22;50827;47.014;7.652;2023-08-21T07:06:02;23.20;99.90
3752;DHT22;50827;47.014;7.652;2023-08-21T07:08:29;23.30;99.90
3752;DHT22;50827;47.014;7.652;2023-08-21T07:10:56;23.30;99.90
3752;DHT22;50827;47.014;7.652;2023-08-21T07:13:23;23.40;99.90
3752;DHT22;50827;47.014;7.652;2023-08-21T07:15:53;23.50;99.90
3752;DHT22;50827;47.014;7.652;2023-08-21T07:18:21;23.50;99.90
3752;DHT22;50827;47.014;7.652;2023-08-21T07:20:48;23.70;99.90
3752;DHT22;50827;47.014;7.652;2023-08-21T07:23:15;23.70;99.90
3752;DHT22;50827;47.014;7.652;2023-08-21T07:25:42;23.80;99.90
3752;DHT22;50827;47.014;7.652;2023-08-21T07:28:09;23.80;99.90
3752;DHT22;50827;47.014;7.652;2023-08-21T07:30:37;23.90;99.90
3752;DHT22;50827;47.014;7.652;2023-08-21T07:33:05;24.00;99.90
3752;DHT22;50827;47.014;7.652;2023-08-21T07:35:32;24.10;99.90
3752;DHT22;50827;47.014;7.652;2023-08-21T07:37:59;24.10;99.90
3752;DHT22;50827;47.014;7.652;2023-08-21T07:40:26;24.20;99.90
3752;DHT22;50827;47.014;7.652;2023-08-21T07:42:53;24.20;99.90
3752;DHT22;50827;47.014;7.652;2023-08-21T07:45:19;24.30;99.90
3752;DHT22;50827;47.014;7.652;2023-08-21T07:47:46;24.40;99.90
3752;DHT22;50827;47.014;7.652;2023-08-21T07:50:26;24.40;99.90
3752;DHT22;50827;47.014;7.652;2023-08-21T07:52:53;24.40;99.90
3752;DHT22;50827;47.014;7.652;2023-08-21T07:55:20;24.50;99.90
3752;DHT22;50827;47.014;7.652;2023-08-21T07:57:47;24.60;99.90
3752;DHT22;50827;47.014;7.652;2023-08-21T08:00:14;24.60;99.90
3752;DHT22;50827;47.014;7.652;2023-08-21T08:02:41;24.70;99.90
3752;DHT22;50827;47.014;7.652;2023-08-21T08:05:09;24.70;99.90
3752;DHT22;50827;47.014;7.652;2023-08-21T08:07:36;24.80;99.90
3752;DHT22;50827;47.014;7.652;2023-08-21T08:10:03;24.80;99.90
3752;DHT22;50827;47.014;7.652;2023-08-21T08:12:30;24.90;99.90
3752;DHT22;50827;47.014;7.652;2023-08-21T08:14:56;24.90;99.90
3752;DHT22;50827;47.014;7.652;2023-08-21T08:17:23;25.00;99.90
3752;DHT22;50827;47.014;7.652;2023-08-21T08:19:50;25.00;99.90
3752;DHT22;50827;47.014;7.652;2023-08-21T08:22:17;25.20;99.90
3752;DHT22;50827;47.014;7.652;2023-08-21T08:24:43;25.20;99.90
3752;DHT22;50827;47.014;7.652;2023-08-21T08:27:10;25.20;99.90
3752;DHT22;50827;47.014;7.652;2023-08-21T08:29:38;25.30;99.90
3752;DHT22;50827;47.014;7.652;2023-08-21T08:32:05;25.40;99.90
3752;DHT22;50827;47.014;7.652;2023-08-21T08:34:32;25.40;99.90
3752;DHT22;50827;47.014;7.652;2023-08-21T08:36:59;25.50;99.90
3752;DHT22;50827;47.014;7.652;2023-08-21T08:39:25;25.60;99.90
3752;DHT22;50827;47.014;7.652;2023-08-21T08:41:58;25.60;99.90
3752;DHT22;50827;47.014;7.652;2023-08-21T08:44:26;25.70;99.90
3752;DHT22;50827;47.014;7.652;2023-08-21T08:46:54;25.80;99.90
3752;DHT22;50827;47.014;7.652;2023-08-21T08:49:22;25.90;99.90
3752;DHT22;50827;47.014;7.652;2023-08-21T08:51:50;25.90;99.90
3752;DHT22;50827;47.014;7.652;2023-08-21T08:54:17;26.00;99.90
3752;DHT22;50827;47.014;7.652;2023-08-21T08:56:45;26.00;99.90
3752;DHT22;50827;47.014;7.652;2023-08-21T08:59:15;26.10;99.90
3752;DHT22;50827;47.014;7.652;2023-08-21T09:01:42;26.20;99.90
3752;DHT22;50827;47.014;7.652;2023-08-21T09:04:09;26.30;99.90
3752;DHT22;50827;47.014;7.652;2023-08-21T09:06:37;26.30;99.90
3752;DHT22;50827;47.014;7.652;2023-08-21T09:09:04;26.30;99.90
3752;DHT22;50827;47.014;7.652;2023-08-21T09:11:32;26.40;99.90
3752;DHT22;50827;47.014;7.652;2023-08-21T09:14:00;26.60;99.90
3752;DHT22;50827;47.014;7.652;2023-08-21T09:16:26;26.60;99.90
3752;DHT22;50827;47.014;7.652;2023-08-21T09:18:55;26.60;99.90
3752;DHT22;50827;47.014;7.652;2023-08-21T09:21:25;26.70;99.90
3752;DHT22;50827;47.014;7.652;2023-08-21T09:23:58;26.80;99.90
3752;DHT22;50827;47.014;7.652;2023-08-21T09:26:25;26.80;99.90
3752;DHT22;50827;47.014;7.652;2023-08-21T09:28:53;26.80;99.90
3752;DHT22;50827;47.014;7.652;2023-08-21T09:31:23;26.90;99.90
3752;DHT22;50827;47.014;7.652;2023-08-21T09:34:01;27.00;99.90
3752;DHT22;50827;47.014;7.652;2023-08-21T09:36:32;27.10;99.90
3752;DHT22;50827;47.014;7.652;2023-08-21T09:38:59;27.10;99.90
3752;DHT22;50827;47.014;7.652;2023-08-21T09:41:26;27.20;99.90
3752;DHT22;50827;47.014;7.652;2023-08-21T09:43:58;27.30;99.90
3752;DHT22;50827;47.014;7.652;2023-08-21T09:46:26;27.30;99.90
3752;DHT22;50827;47.014;7.652;2023-08-21T09:48:54;27.50;99.90
3752;DHT22;50827;47.014;7.652;2023-08-21T09:51:22;27.40;99.90
3752;DHT22;50827;47.014;7.652;2023-08-21T09:53:49;27.50;99.90
3752;DHT22;50827;47.014;7.652;2023-08-21T09:56:19;27.60;99.90
3752;DHT22;50827;47.014;7.652;2023-08-21T09:58:50;27.70;99.90
3752;DHT22;50827;47.014;7.652;2023-08-21T10:01:19;27.70;99.90
3752;DHT22;50827;47.014;7.652;2023-08-21T10:03:48;27.80;99.90
3752;DHT22;50827;47.014;7.652;2023-08-21T10:06:18;27.80;99.90
3752;DHT22;50827;47.014;7.652;2023-08-21T10:08:53;27.90;99.90
3752;DHT22;50827;47.014;7.652;2023-08-21T10:11:21;27.90;99.90
3752;DHT22;50827;47.014;7.652;2023-08-21T10:13:48;27.90;99.90
3752;DHT22;50827;47.014;7.652;2023-08-21T10:16:19;28.00;99.90
3752;DHT22;50827;47.014;7.652;2023-08-21T10:18:48;28.10;99.90
3752;DHT22;50827;47.014;7.652;2023-08-21T10:21:22;28.10;99.90
3752;DHT22;50827;47.014;7.652;2023-08-21T10:23:54;28.10;99.90
3752;DHT22;50827;47.014;7.652;2023-08-21T10:26:22;28.30;99.90
3752;DHT22;50827;47.014;7.652;2023-08-21T10:28:51;28.30;99.90
3752;DHT22;50827;47.014;7.652;2023-08-21T10:31:38;28.40;99.90
3752;DHT22;50827;47.014;7.652;2023-08-21T10:34:07;28.40;99.90
3752;DHT22;50827;47.014;7.652;2023-08-21T10:50:05;28.70;99.90
3752;DHT22;50827;47.014;7.652;2023-08-21T10:52:40;28.80;99.90
3752;DHT22;50827;47.014;7.652;2023-08-21T10:55:14;28.90;99.90
3752;DHT22;50827;47.014;7.652;2023-08-21T10:57:41;28.90;99.90
3752;DHT22;50827;47.014;7.652;2023-08-21T11:00:10;29.00;99.90
3752;DHT22;50827;47.014;7.652;2023-08-21T11:02:40;29.10;99.90
3752;DHT22;50827;47.014;7.652;2023-08-21T11:05:08;29.10;99.90
3752;DHT22;50827;47.014;7.652;2023-08-21T11:07:42;29.10;99.90
3752;DHT22;50827;47.014;7.652;2023-08-21T11:10:17;29.20;99.90
3752;DHT22;50827;47.014;7.652;2023-08-21T11:12:52;29.30;99.90
3752;DHT22;50827;47.014;7.652;2023-08-21T11:15:20;29.30;99.90
3752;DHT22;50827;47.014;7.652;2023-08-21T11:18:00;29.30;99.90
3752;DHT22;50827;47.014;7.652;2023-08-21T11:23:00;29.50;99.90
3752;DHT22;50827;47.014;7.652;2023-08-21T11:25:30;29.50;99.90
3752;DHT22;50827;47.014;7.652;2023-08-21T11:27:57;29.60;99.90
3752;DHT22;50827;47.014;7.652;2023-08-21T11:30:23;29.70;99.90
3752;DHT22;50827;47.014;7.652;2023-08-21T11:33:13;29.70;99.90
3752;DHT22;50827;47.014;7.652;2023-08-21T11:35:41;29.70;99.90
3752;DHT22;50827;47.014;7.652;2023-08-21T11:38:18;29.80;99.90
3752;DHT22;50827;47.014;7.652;2023-08-21T11:41:02;29.90;99.90
3752;DHT22;50827;47.014;7.652;2023-08-21T11:43:36;29.90;99.90
3752;DHT22;50827;47.014;7.652;2023-08-21T11:46:07;29.90;99.90
3752;DHT22;50827;47.014;7.652;2023-08-21T11:48:37;29.90;99.90
3752;DHT22;50827;47.014;7.652;2023-08-21T11:51:04;30.00;99.90
3752;DHT22;50827;47.014;7.652;2023-08-21T11:53:33;30.00;99.90
3752;DHT22;50827;47.014;7.652;2023-08-21T11:56:00;30.10;99.90
3752;DHT22;50827;47.014;7.652;2023-08-21T11:58:27;30.20;99.90
3752;DHT22;50827;47.014;7.652;2023-08-21T12:01:04;30.20;99.90
3752;DHT22;50827;47.014;7.652;2023-08-21T12:03:38;30.30;99.90
3752;DHT22;50827;47.014;7.652;2023-08-21T12:06:07;30.20;99.90
3752;DHT22;50827;47.014;7.652;2023-08-21T12:08:35;30.30;99.90
3752;DHT22;50827;47.014;7.652;2023-08-21T12:11:02;30.30;99.90
3752;DHT22;50827;47.014;7.652;2023-08-21T12:13:30;30.40;99.90
3752;DHT22;50827;47.014;7.652;2023-08-21T12:16:00;30.40;99.90
3752;DHT22;50827;47.014;7.652;2023-08-21T12:18:27;30.40;99.90
3752;DHT22;50827;47.014;7.652;2023-08-21T12:20:53;30.50;99.90
3752;DHT22;50827;47.014;7.652;2023-08-21T12:23:20;30.50;99.90
3752;DHT22;50827;47.014;7.652;2023-08-21T12:25:47;30.60;99.90
3752;DHT22;50827;47.014;7.652;2023-08-21T12:28:13;30.60;99.90
3752;DHT22;50827;47.014;7.652;2023-08-21T12:30:40;30.70;99.90
3752;DHT22;50827;47.014;7.652;2023-08-21T12:33:07;30.70;99.90
3752;DHT22;50827;47.014;7.652;2023-08-21T12:35:49;30.80;99.90
3752;DHT22;50827;47.014;7.652;2023-08-21T12:38:16;30.90;99.90
3752;DHT22;50827;47.014;7.652;2023-08-21T12:40:43;31.00;99.90
3752;DHT22;50827;47.014;7.652;2023-08-21T12:43:09;31.00;99.90
3752;DHT22;50827;47.014;7.652;2023-08-21T12:45:36;31.00;99.90
3752;DHT22;50827;47.014;7.652;2023-08-21T12:48:04;31.10;99.90
3752;DHT22;50827;47.014;7.652;2023-08-21T12:50:31;31.10;99.90
3752;DHT22;50827;47.014;7.652;2023-08-21T12:52:58;31.20;99.90
3752;DHT22;50827;47.014;7.652;2023-08-21T12:55:24;31.20;99.90
3752;DHT22;50827;47.014;7.652;2023-08-21T12:57:51;31.30;99.90
3752;DHT22;50827;47.014;7.652;2023-08-21T13:00:18;31.30;99.90
3752;DHT22;50827;47.014;7.652;2023-08-21T13:02:44;31.30;99.90
3752;DHT22;50827;47.014;7.652;2023-08-21T13:05:11;31.30;99.90
3752;DHT22;50827;47.014;7.652;2023-08-21T13:07:38;31.40;99.90
3752;DHT22;50827;47.014;7.652;2023-08-21T13:10:05;31.40;99.90
3752;DHT22;50827;47.014;7.652;2023-08-21T13:12:32;31.50;99.90
3752;DHT22;50827;47.014;7.652;2023-08-21T13:14:59;31.50;99.90
3752;DHT22;50827;47.014;7.652;2023-08-21T13:17:26;31.50;99.90
3752;DHT22;50827;47.014;7.652;2023-08-21T13:19:53;31.50;99.90
3752;DHT22;50827;47.014;7.652;2023-08-21T13:22:19;31.50;99.90
3752;DHT22;50827;47.014;7.652;2023-08-21T13:24:46;31.60;99.90
3752;DHT22;50827;47.014;7.652;2023-08-21T13:27:13;31.60;99.90
3752;DHT22;50827;47.014;7.652;2023-08-21T13:29:39;31.70;99.90
3752;DHT22;50827;47.014;7.652;2023-08-21T13:32:06;31.80;99.90
3752;DHT22;50827;47.014;7.652;2023-08-21T13:34:33;31.90;99.90
3752;DHT22;50827;47.014;7.652;2023-08-21T13:37:00;31.90;99.90
3752;DHT22;50827;47.014;7.652;2023-08-21T13:39:27;31.90;99.90
3752;DHT22;50827;47.014;7.652;2023-08-21T13:41:54;31.90;99.90
3752;DHT22;50827;47.014;7.652;2023-08-21T13:44:20;31.90;99.90
3752;DHT22;50827;47.014;7.652;2023-08-21T13:46:47;31.90;99.90
3752;DHT22;50827;47.014;7.652;2023-08-21T13:49:14;32.00;99.90
3752;DHT22;50827;47.014;7.652;2023-08-21T13:51:41;31.90;99.90
3752;DHT22;50827;47.014;7.652;2023-08-21T13:54:08;32.00;99.90
3752;DHT22;50827;47.014;7.652;2023-08-21T13:56:36;32.00;99.90
3752;DHT22;50827;47.014;7.652;2023-08-21T13:59:03;32.00;99.90
3752;DHT22;50827;47.014;7.652;2023-08-21T14:01:29;32.10;99.90
3752;DHT22;50827;47.014;7.652;2023-08-21T14:03:58;32.10;99.90
3752;DHT22;50827;47.014;7.652;2023-08-21T14:06:30;32.10;99.90
3752;DHT22;50827;47.014;7.652;2023-08-21T14:08:57;32.10;99.90
3752;DHT22;50827;47.014;7.652;2023-08-21T14:11:23;32.20;99.90
3752;DHT22;50827;47.014;7.652;2023-08-21T14:13:50;32.20;99.90
3752;DHT22;50827;47.014;7.652;2023-08-21T14:16:17;32.20;99.90
3752;DHT22;50827;47.014;7.652;2023-08-21T14:18:44;32.20;99.90
3752;DHT22;50827;47.014;7.652;2023-08-21T14:21:11;32.20;99.90
3752;DHT22;50827;47.014;7.652;2023-08-21T14:23:37;32.20;99.90
3752;DHT22;50827;47.014;7.652;2023-08-21T14:26:05;32.20;99.90
3752;DHT22;50827;47.014;7.652;2023-08-21T14:28:32;32.30;99.90
3752;DHT22;50827;47.014;7.652;2023-08-21T14:30:59;32.30;99.90
3752;DHT22;50827;47.014;7.652;2023-08-21T14:33:26;32.40;99.90
3752;DHT22;50827;47.014;7.652;2023-08-21T14:35:53;32.30;99.90
3752;DHT22;50827;47.014;7.652;2023-08-21T14:38:19;32.40;99.90
3752;DHT22;50827;47.014;7.652;2023-08-21T14:40:46;32.40;99.90
3752;DHT22;50827;47.014;7.652;2023-08-21T14:43:13;32.50;99.90
3752;DHT22;50827;47.014;7.652;2023-08-21T14:45:40;32.50;99.90
3752;DHT22;50827;47.014;7.652;2023-08-21T14:48:06;32.50;99.90
3752;DHT22;50827;47.014;7.652;2023-08-21T14:50:33;32.50;99.90
3752;DHT22;50827;47.014;7.652;2023-08-21T14:53:00;32.60;99.90
3752;DHT22;50827;47.014;7.652;2023-08-21T14:55:26;32.70;99.90
3752;DHT22;50827;47.014;7.652;2023-08-21T14:57:53;32.60;99.90
3752;DHT22;50827;47.014;7.652;2023-08-21T15:00:20;32.60;99.90
3752;DHT22;50827;47.014;7.652;2023-08-21T15:02:46;32.60;99.90
3752;DHT22;50827;47.014;7.652;2023-08-21T15:05:13;32.70;99.90
3752;DHT22;50827;47.014;7.652;2023-08-21T15:07:42;32.70;99.90
3752;DHT22;50827;47.014;7.652;2023-08-21T15:10:09;32.70;99.90
3752;DHT22;50827;47.014;7.652;2023-08-21T15:12:36;32.70;99.90
3752;DHT22;50827;47.014;7.652;2023-08-21T15:15:04;32.80;99.90
3752;DHT22;50827;47.014;7.652;2023-08-21T15:17:31;32.80;99.90
3752;DHT22;50827;47.014;7.652;2023-08-21T15:19:58;32.80;99.90
3752;DHT22;50827;47.014;7.652;2023-08-21T15:22:24;32.80;99.90
3752;DHT22;50827;47.014;7.652;2023-08-21T15:24:51;32.90;99.90
3752;DHT22;50827;47.014;7.652;2023-08-21T15:27:18;32.80;99.90
3752;DHT22;50827;47.014;7.652;2023-08-21T15:29:44;32.80;99.90
3752;DHT22;50827;47.014;7.652;2023-08-21T15:32:11;32.80;99.90
3752;DHT22;50827;47.014;7.652;2023-08-21T15:34:38;32.80;99.90
3752;DHT22;50827;47.014;7.652;2023-08-21T15:37:05;32.90;99.90
3752;DHT22;50827;47.014;7.652;2023-08-21T15:39:31;32.80;99.90
3752;DHT22;50827;47.014;7.652;2023-08-21T15:41:58;32.80;99.90
3752;DHT22;50827;47.014;7.652;2023-08-21T15:44:25;32.90;99.90
3752;DHT22;50827;47.014;7.652;2023-08-21T15:46:51;32.90;99.90
3752;DHT22;50827;47.014;7.652;2023-08-21T15:49:38;32.90;99.90
3752;DHT22;50827;47.014;7.652;2023-08-21T15:52:05;32.90;99.90
3752;DHT22;50827;47.014;7.652;2023-08-21T15:54:33;32.90;99.90
3752;DHT22;50827;47.014;7.652;2023-08-21T15:57:00;32.90;99.90
3752;DHT22;50827;47.014;7.652;2023-08-21T15:59:27;32.90;99.90
3752;DHT22;50827;47.014;7.652;2023-08-21T16:01:54;32.90;99.90
3752;DHT22;50827;47.014;7.652;2023-08-21T16:04:21;32.90;99.90
3752;DHT22;50827;47.014;7.652;2023-08-21T16:06:48;32.90;99.90
3752;DHT22;50827;47.014;7.652;2023-08-21T16:09:16;32.90;99.90